Time;durP1;ratioP1;P1;durP2;ratioP2;P2;SDS_P1;SDS_P2;PMS_P1;PMS_P2;Temp;Humidity;BMP_temperature;BMP_pressure;BME280_temperature;BME280_humidity;BME280_pressure;Samples;Min_cycle;Max_cycle;Signal;HPM_P1;HPM_P2
2022/09/14 00:01:12;;;;;;;5.20;3.73;;;17.80;55.10;;;;;;5068528;28;48383;-64
2022/09/14 00:03:37;;;;;;;5.83;4.00;;;17.90;55.10;;;;;;5068526;28;46404;-65
2022/09/14 00:06:09;;;;;;;7.27;4.23;;;17.90;54.10;;;;;;5067898;28;46262;-66
2022/09/14 00:08:38;;;;;;;17.87;4.33;;;17.90;54.90;;;;;;5068080;28;46621;-66
2022/09/14 00:11:07;;;;;;;6.90;4.00;;;17.90;55.40;;;;;;5068981;28;47142;-66
2022/09/14 00:13:34;;;;;;;9.23;3.83;;;17.80;55.70;;;;;;5070912;27;46514;-65
2022/09/14 00:16:05;;;;;;;8.70;3.73;;;17.80;55.40;;;;;;5071685;28;46423;-65
2022/09/14 00:18:37;;;;;;;7.80;4.20;;;17.90;55.50;;;;;;5071056;28;46796;-65
2022/09/14 00:21:06;;;;;;;10.50;4.50;;;17.90;55.40;;;;;;5071430;28;46385;-65
2022/09/14 00:23:35;;;;;;;18.50;4.13;;;17.90;56.30;;;;;;5072659;28;46419;-65
2022/09/14 00:26:06;;;;;;;9.30;4.47;;;18.00;55.50;;;;;;5072197;28;46492;-64
2022/09/14 00:28:40;;;;;;;8.43;4.03;;;17.90;56.60;;;;;;5071627;28;46491;-65
2022/09/14 00:31:10;;;;;;;7.70;3.97;;;17.90;57.50;;;;;;5072110;28;46425;-66
2022/09/14 00:33:42;;;;;;;7.73;3.50;;;17.90;57.90;;;;;;5072106;27;46342;-65
2022/09/14 00:36:17;;;;;;;6.90;3.83;;;17.90;57.90;;;;;;5071792;28;46494;-66
2022/09/14 00:38:43;;;;;;;15.03;4.10;;;18.00;58.30;;;;;;5071672;28;46420;-66
2022/09/14 00:41:22;;;;;;;6.70;3.80;;;18.10;56.80;;;;;;5071396;28;47700;-66
2022/09/14 00:44:09;;;;;;;14.10;3.57;;;;;;;;;;5073014;28;46592;-65
2022/09/14 00:46:38;;;;;;;7.40;3.23;;;18.10;57.00;;;;;;5071098;28;46534;-66
2022/09/14 00:49:22;;;;;;;4.10;3.00;;;18.10;57.10;;;;;;5070345;28;46553;-66
2022/09/14 00:51:59;;;;;;;5.20;3.60;;;18.10;58.10;;;;;;5071012;27;46653;-65
2022/09/14 00:54:25;;;;;;;6.20;3.30;;;18.10;57.10;;;;;;5070610;28;46440;-65
2022/09/14 00:56:51;;;;;;;9.23;3.77;;;18.10;57.90;;;;;;5071522;28;46323;-65
2022/09/14 00:59:31;;;;;;;8.33;2.87;;;18.10;57.70;;;;;;5072319;27;46604;-64
2022/09/14 01:02:08;;;;;;;10.43;3.83;;;18.20;56.60;;;;;;5071845;27;46483;-65
2022/09/14 01:04:36;;;;;;;4.60;3.43;;;18.10;56.50;;;;;;5071117;28;45754;-65
2022/09/14 01:07:27;;;;;;;5.60;3.10;;;18.20;57.70;;;;;;5070987;28;46440;-64
2022/09/14 01:10:14;;;;;;;11.00;3.30;;;18.10;57.70;;;;;;5071440;28;47038;-65
2022/09/14 01:13:08;;;;;;;7.93;3.33;;;18.20;56.40;;;;;;5071297;28;46422;-64
2022/09/14 01:15:46;;;;;;;8.00;3.53;;;18.20;56.20;;;;;;5071345;28;46426;-65
2022/09/14 01:18:13;;;;;;;10.77;3.90;;;18.20;57.20;;;;;;5070439;27;46386;-65
2022/09/14 01:20:41;;;;;;;8.13;3.40;;;18.20;57.00;;;;;;5071903;27;46686;-65
2022/09/14 01:23:31;;;;;;;7.93;3.40;;;18.30;56.90;;;;;;5070847;28;46590;-63
2022/09/14 01:26:26;;;;;;;14.87;3.20;;;18.30;56.00;;;;;;5070153;27;46436;-64
2022/09/14 01:28:59;;;;;;;3.70;2.70;;;18.30;56.80;;;;;;5071492;28;46393;-66
2022/09/14 01:31:51;;;;;;;5.00;3.30;;;18.30;56.80;;;;;;5070938;28;46354;-64
2022/09/14 01:34:59;;;;;;;5.80;3.40;;;18.30;56.00;;;;;;5068133;27;46496;-65
2022/09/14 01:37:36;;;;;;;8.70;3.70;;;18.30;55.90;;;;;;5069863;27;46295;-64
2022/09/14 01:40:15;;;;;;;5.03;3.20;;;18.30;57.00;;;;;;5068040;28;45897;-64
2022/09/14 01:42:45;;;;;;;9.23;3.23;;;18.40;56.80;;;;;;5071835;27;46716;-64
2022/09/14 01:45:15;;;;;;;5.00;3.73;;;18.40;55.60;;;;;;5070252;28;46576;-64
2022/09/14 01:48:02;;;;;;;5.40;3.50;;;18.50;55.90;;;;;;5070503;28;46441;-65
2022/09/14 01:50:33;;;;;;;12.70;2.90;;;18.40;56.80;;;;;;5069480;28;46519;-64
2022/09/14 01:53:11;;;;;;;6.30;3.30;;;18.50;56.60;;;;;;5069904;28;46445;-64
2022/09/14 01:55:41;;;;;;;13.07;2.87;;;18.60;56.50;;;;;;5071116;27;47439;-64
2022/09/14 01:58:12;;;;;;;5.37;3.40;;;18.60;56.40;;;;;;5069362;28;46374;-64
2022/09/14 02:00:44;;;;;;;5.87;3.20;;;18.60;56.40;;;;;;5071453;28;46371;-64
2022/09/14 02:03:21;;;;;;;9.63;3.30;;;18.60;56.30;;;;;;5069844;28;46562;-64
2022/09/14 02:06:14;;;;;;;4.67;3.10;;;18.60;55.50;;;;;;5066497;28;48003;-64
2022/09/14 02:08:41;;;;;;;5.50;2.73;;;18.50;56.80;;;;;;5068983;28;46401;-64
2022/09/14 02:11:07;;;;;;;4.53;2.63;;;18.40;56.90;;;;;;5066763;28;46484;-64
2022/09/14 02:13:33;;;;;;;6.77;2.47;;;18.40;57.50;;;;;;5068132;28;46660;-64
2022/09/14 02:15:59;;;;;;;5.10;2.80;;;18.40;56.60;;;;;;5067162;27;47236;-64
2022/09/14 02:18:24;;;;;;;4.73;2.93;;;18.40;58.50;;;;;;5068001;28;46348;-64
2022/09/14 02:21:01;;;;;;;9.90;3.00;;;18.40;57.40;;;;;;5068095;27;45890;-64
2022/09/14 02:23:27;;;;;;;4.33;2.30;;;18.50;57.20;;;;;;5067635;28;46430;-65
2022/09/14 02:25:53;;;;;;;6.50;3.10;;;18.50;56.10;;;;;;5068696;28;46999;-65
2022/09/14 02:28:19;;;;;;;3.40;2.60;;;18.50;56.90;;;;;;5065897;28;46362;-64
2022/09/14 02:30:57;;;;;;;4.30;3.00;;;18.60;56.90;;;;;;5068487;27;46467;-64
2022/09/14 02:33:42;;;;;;;12.00;3.10;;;18.60;56.80;;;;;;5068733;28;46417;-64
2022/09/14 02:36:20;;;;;;;8.00;3.10;;;18.60;55.70;;;;;;5067496;27;48212;-65
2022/09/14 02:39:08;;;;;;;11.50;3.50;;;18.60;56.50;;;;;;5068889;28;46356;-64
2022/09/14 02:41:43;;;;;;;9.23;2.43;;;18.60;55.70;;;;;;5069976;28;46408;-64
2022/09/14 02:44:33;;;;;;;3.77;2.60;;;18.50;55.70;;;;;;5068431;28;46647;-64
2022/09/14 02:47:13;;;;;;;7.93;2.90;;;18.50;56.70;;;;;;5067019;28;49349;-64
2022/09/14 02:49:54;;;;;;;5.90;2.73;;;18.50;56.70;;;;;;5070023;28;46404;-63
2022/09/14 02:52:39;;;;;;;7.07;2.60;;;18.50;56.70;;;;;;5066628;28;46553;-64
2022/09/14 02:55:11;;;;;;;6.93;2.83;;;18.50;57.20;;;;;;5064634;28;46568;-64
2022/09/14 02:57:59;;;;;;;8.83;2.77;;;18.50;57.10;;;;;;5068510;28;46376;-64
2022/09/14 03:00:26;;;;;;;11.10;2.60;;;18.30;57.10;;;;;;5066488;28;46698;-64
2022/09/14 03:02:52;;;;;;;7.77;2.80;;;18.50;57.10;;;;;;5069831;27;46519;-64
2022/09/14 03:05:18;;;;;;;5.33;2.40;;;18.50;56.10;;;;;;5068613;28;46441;-64
2022/09/14 03:07:45;;;;;;;5.47;2.90;;;18.50;57.20;;;;;;5067763;28;46416;-64
2022/09/14 03:10:10;;;;;;;6.33;3.10;;;18.50;57.20;;;;;;5068749;28;46549;-64
2022/09/14 03:12:39;;;;;;;6.03;2.63;;;18.50;57.00;;;;;;5068331;28;46431;-64
2022/09/14 03:15:05;;;;;;;6.23;2.60;;;18.50;56.90;;;;;;5070717;28;46360;-64
2022/09/14 03:17:31;;;;;;;3.83;2.50;;;18.60;57.00;;;;;;5067937;28;46507;-65
2022/09/14 03:19:57;;;;;;;5.93;3.10;;;18.60;56.90;;;;;;5068718;28;46413;-64
2022/09/14 03:22:23;;;;;;;5.03;2.43;;;18.60;56.70;;;;;;5069466;28;46418;-65
2022/09/14 03:24:48;;;;;;;4.77;2.83;;;18.60;56.70;;;;;;5067578;27;46580;-65
2022/09/14 03:27:14;;;;;;;6.63;2.80;;;18.60;56.60;;;;;;5067789;27;46412;-65
2022/09/14 03:29:39;;;;;;;6.83;2.53;;;18.60;56.60;;;;;;5068733;27;46470;-65
2022/09/14 03:32:05;;;;;;;6.23;2.50;;;18.60;56.80;;;;;;5068334;27;46407;-65
2022/09/14 03:34:30;;;;;;;4.20;2.70;;;18.60;56.80;;;;;;5069171;28;46611;-64
2022/09/14 03:36:56;;;;;;;5.80;2.70;;;18.60;56.90;;;;;;5069689;28;46727;-64
2022/09/14 03:39:22;;;;;;;4.30;2.50;;;18.50;57.10;;;;;;5069387;28;46444;-65
2022/09/14 03:41:47;;;;;;;5.70;2.37;;;18.50;57.40;;;;;;5069635;28;46483;-65
2022/09/14 03:44:13;;;;;;;4.37;2.50;;;18.50;57.10;;;;;;5066315;28;46374;-64
2022/09/14 03:46:39;;;;;;;3.87;2.30;;;18.50;57.00;;;;;;5067616;27;46686;-64
2022/09/14 03:49:04;;;;;;;3.83;2.20;;;18.50;58.10;;;;;;5069165;28;46413;-65
2022/09/14 03:51:32;;;;;;;5.80;2.47;;;18.50;58.00;;;;;;5068824;28;46525;-65
2022/09/14 03:53:57;;;;;;;5.20;2.30;;;18.50;58.10;;;;;;5069443;28;46559;-63
2022/09/14 03:56:23;;;;;;;2.80;1.73;;;18.50;56.80;;;;;;5069936;28;46229;-65
2022/09/14 03:58:52;;;;;;;7.63;2.30;;;18.60;57.80;;;;;;5068239;28;46345;-64
2022/09/14 04:01:21;;;;;;;8.80;2.47;;;18.60;57.70;;;;;;5067454;28;46477;-64
2022/09/14 04:03:51;;;;;;;4.37;1.80;;;18.70;57.60;;;;;;5070296;28;46761;-64
2022/09/14 04:06:18;;;;;;;4.83;2.33;;;18.70;56.50;;;;;;5068108;28;46404;-64
2022/09/14 04:08:45;;;;;;;3.90;2.93;;;18.70;57.60;;;;;;5069250;28;46405;-64
2022/09/14 04:11:19;;;;;;;4.70;2.50;;;18.60;57.70;;;;;;5068542;28;46528;-64
2022/09/14 04:13:46;;;;;;;6.10;2.53;;;18.60;57.90;;;;;;5070150;28;45909;-63
2022/09/14 04:16:12;;;;;;;7.80;2.30;;;18.60;56.90;;;;;;5065231;28;46339;-64
2022/09/14 04:18:37;;;;;;;4.70;2.47;;;18.60;58.00;;;;;;5066858;28;46373;-64
2022/09/14 04:21:09;;;;;;;3.73;2.07;;;18.60;57.90;;;;;;5068550;28;46356;-65
2022/09/14 04:23:35;;;;;;;3.93;2.30;;;18.60;58.20;;;;;;5068496;28;45751;-64
2022/09/14 04:26:08;;;;;;;5.20;2.53;;;18.60;58.30;;;;;;5070552;28;46397;-65
2022/09/14 04:28:37;;;;;;;12.00;2.53;;;18.60;58.30;;;;;;5066936;28;46514;-63
2022/09/14 04:31:09;;;;;;;5.17;2.60;;;18.70;58.20;;;;;;5067429;28;46387;-63
2022/09/14 04:33:41;;;;;;;5.20;2.60;;;18.80;58.20;;;;;;5068406;28;46769;-63
2022/09/14 04:36:27;;;;;;;8.80;2.30;;;18.80;58.00;;;;;;5067580;28;47216;-63
2022/09/14 04:39:01;;;;;;;4.27;2.60;;;18.80;57.90;;;;;;5068926;28;45873;-64
2022/09/14 04:41:36;;;;;;;7.00;2.60;;;18.80;57.80;;;;;;5069079;28;46446;-65
2022/09/14 04:44:22;;;;;;;4.80;2.40;;;18.80;57.70;;;;;;5068368;27;46497;-64
2022/09/14 04:46:51;;;;;;;6.90;2.70;;;18.90;57.80;;;;;;5068135;27;46466;-64
2022/09/14 04:49:17;;;;;;;4.67;2.50;;;18.90;57.70;;;;;;5067465;28;46531;-66
2022/09/14 04:51:44;;;;;;;4.40;2.20;;;19.00;57.60;;;;;;5067537;28;46817;-66
2022/09/14 04:54:13;;;;;;;7.20;2.20;;;19.00;57.50;;;;;;5069319;27;46699;-66
2022/09/14 04:56:39;;;;;;;5.37;2.50;;;19.00;57.30;;;;;;5066476;27;49593;-66
2022/09/14 04:59:05;;;;;;;3.80;2.23;;;19.00;57.20;;;;;;5070722;28;46439;-65
2022/09/14 05:01:37;;;;;;;6.60;2.13;;;19.10;57.20;;;;;;5069220;28;46451;-66
2022/09/14 05:04:18;;;;;;;5.90;2.37;;;19.10;57.30;;;;;;5070561;27;46034;-64
2022/09/14 05:06:44;;;;;;;6.87;2.20;;;19.20;57.30;;;;;;5070240;28;46433;-65
2022/09/14 05:09:19;;;;;;;4.27;2.30;;;19.20;56.10;;;;;;5071395;28;46435;-64
2022/09/14 05:11:45;;;;;;;9.63;2.33;;;19.20;57.20;;;;;;5070854;28;46423;-66
2022/09/14 05:14:13;;;;;;;4.63;2.13;;;19.20;55.80;;;;;;5070758;28;46595;-66
2022/09/14 05:16:39;;;;;;;7.50;2.47;;;19.20;56.80;;;;;;5071051;28;46693;-66
2022/09/14 05:19:08;;;;;;;5.30;2.67;;;19.20;56.60;;;;;;5070846;28;46615;-65
2022/09/14 05:21:35;;;;;;;7.73;2.50;;;19.30;56.60;;;;;;5072042;27;46399;-65
2022/09/14 05:24:11;;;;;;;3.90;2.40;;;19.30;56.50;;;;;;5071379;28;45864;-65
2022/09/14 05:26:37;;;;;;;9.83;2.20;;;19.40;56.20;;;;;;5070451;28;48119;-65
2022/09/14 05:29:03;;;;;;;5.70;2.53;;;19.40;56.10;;;;;;5071746;28;46737;-66
2022/09/14 05:31:30;;;;;;;5.30;2.10;;;19.50;56.20;;;;;;5070894;28;46488;-66
2022/09/14 05:33:56;;;;;;;5.17;2.47;;;19.50;56.20;;;;;;5071044;28;45818;-66
2022/09/14 05:36:22;;;;;;;8.13;3.00;;;19.50;56.10;;;;;;5071682;28;45993;-66
2022/09/14 05:38:47;;;;;;;9.83;4.27;;;19.50;56.00;;;;;;5070852;27;45785;-65
2022/09/14 05:41:15;;;;;;;8.50;5.30;;;19.50;56.00;;;;;;5071473;28;46412;-66
2022/09/14 05:43:41;;;;;;;8.03;4.37;;;19.50;56.00;;;;;;5072918;28;46556;-66
2022/09/14 05:46:10;;;;;;;8.33;2.37;;;19.50;56.20;;;;;;5071433;28;46722;-66
2022/09/14 05:48:37;;;;;;;7.13;2.53;;;19.50;56.30;;;;;;5069358;28;45746;-65
2022/09/14 05:51:06;;;;;;;7.43;2.70;;;19.60;56.30;;;;;;5071785;28;46413;-66
2022/09/14 05:53:32;;;;;;;4.77;2.63;;;19.70;56.20;;;;;;5071716;28;46408;-68
2022/09/14 05:56:07;;;;;;;13.40;3.20;;;19.80;56.10;;;;;;5070114;27;46394;-65
2022/09/14 05:58:34;;;;;;;6.33;2.73;;;19.90;56.10;;;;;;5069007;28;46419;-65
2022/09/14 06:01:13;;;;;;;5.63;2.50;;;20.00;55.90;;;;;;5068802;28;46606;-65
2022/09/14 06:03:39;;;;;;;8.30;2.87;;;20.10;55.80;;;;;;5070681;28;45791;-65
2022/09/14 06:06:06;;;;;;;6.70;2.57;;;20.30;54.50;;;;;;5072020;27;47127;-66
2022/09/14 06:08:32;;;;;;;10.67;2.97;;;20.40;55.50;;;;;;5061719;28;46468;-65
2022/09/14 06:11:10;;;;;;;8.27;2.50;;;20.50;55.20;;;;;;5068494;28;46641;-65
2022/09/14 06:13:36;;;;;;;4.40;2.40;;;20.50;55.10;;;;;;5068789;28;46588;-66
2022/09/14 06:16:03;;;;;;;5.60;2.67;;;20.60;55.00;;;;;;5069231;28;46425;-65
2022/09/14 06:18:30;;;;;;;7.17;2.40;;;20.60;55.20;;;;;;5066871;27;46390;-65
2022/09/14 06:20:56;;;;;;;6.73;2.13;;;20.60;55.40;;;;;;5068177;28;46397;-65
2022/09/14 06:23:23;;;;;;;9.67;2.73;;;20.60;55.50;;;;;;5060318;28;46627;-63
2022/09/14 06:25:53;;;;;;;10.47;3.10;;;20.60;54.80;;;;;;5049180;28;46604;-63
2022/09/14 06:28:22;;;;;;;5.13;2.57;;;20.60;55.90;;;;;;5050325;28;46453;-63
2022/09/14 06:30:48;;;;;;;5.87;2.40;;;20.40;56.10;;;;;;5049232;28;46381;-63
2022/09/14 06:33:18;;;;;;;5.87;2.40;;;20.30;56.40;;;;;;5052796;28;45799;-63
2022/09/14 06:36:02;;;;;;;6.80;2.87;;;20.30;56.00;;;;;;5050239;28;46493;-62
2022/09/14 06:38:29;;;;;;;339.30;174.27;;;20.30;57.20;;;;;;5046769;28;46331;-62
2022/09/14 06:41:01;;;;;;;151.07;84.03;;;20.30;57.20;;;;;;5049892;28;46488;-63
2022/09/14 06:43:35;;;;;;;67.90;45.40;;;20.20;57.20;;;;;;5047360;28;46466;-64
2022/09/14 06:46:25;;;;;;;14.07;5.03;;;20.20;56.20;;;;;;5049371;28;46359;-64
2022/09/14 06:48:55;;;;;;;10.00;4.60;;;20.20;57.30;;;;;;5043832;28;46657;-63
2022/09/14 06:51:33;;;;;;;7.10;3.10;;;20.30;58.30;;;;;;5047919;28;46361;-63
2022/09/14 06:54:00;;;;;;;7.30;4.07;;;20.30;57.10;;;;;;5047752;28;46574;-63
2022/09/14 06:56:30;;;;;;;7.80;3.73;;;20.40;55.80;;;;;;5046822;28;46456;-63
2022/09/14 06:58:57;;;;;;;7.60;2.90;;;20.50;56.60;;;;;;5045762;28;46347;-65
2022/09/14 07:01:24;;;;;;;5.00;3.27;;;20.70;56.60;;;;;;5048410;28;46388;-64
2022/09/14 07:03:51;;;;;;;9.77;4.07;;;20.80;56.20;;;;;;5052240;28;46392;-64
2022/09/14 07:06:29;;;;;;;8.50;5.20;;;21.00;54.70;;;;;;5053253;28;46539;-64
2022/09/14 07:08:55;;;;;;;7.33;3.87;;;21.20;55.50;;;;;;5050344;28;46377;-65
2022/09/14 07:11:24;;;;;;;4.47;2.50;;;21.40;54.90;;;;;;5052319;28;46334;-65
2022/09/14 07:13:53;;;;;;;8.57;3.57;;;21.70;54.40;;;;;;5050155;28;46596;-63
2022/09/14 07:16:19;;;;;;;9.43;2.93;;;21.90;52.40;;;;;;5048529;28;47300;-64
2022/09/14 07:18:45;;;;;;;7.57;3.20;;;22.10;53.00;;;;;;5045023;28;46461;-63
2022/09/14 07:21:13;;;;;;;9.20;2.30;;;22.30;52.70;;;;;;5044721;28;47676;-64
2022/09/14 07:23:41;;;;;;;5.70;2.50;;;22.40;52.00;;;;;;5046459;28;45844;-64
2022/09/14 07:26:13;;;;;;;11.00;2.63;;;22.60;51.60;;;;;;5048497;28;46381;-64
2022/09/14 07:28:40;;;;;;;7.47;2.60;;;22.80;50.90;;;;;;5048836;28;46384;-64
2022/09/14 07:31:23;;;;;;;5.37;2.30;;;22.90;50.60;;;;;;5053259;28;45870;-64
2022/09/14 07:33:53;;;;;;;5.00;2.20;;;23.00;50.40;;;;;;5061792;28;46296;-64
2022/09/14 07:36:19;;;;;;;8.83;2.80;;;23.00;49.30;;;;;;5059319;28;48111;-64
2022/09/14 07:38:45;;;;;;;4.17;2.07;;;23.10;50.50;;;;;;5065938;27;46776;-64
2022/09/14 07:41:12;;;;;;;4.27;2.00;;;23.20;50.10;;;;;;5063705;28;46388;-64
2022/09/14 07:43:37;;;;;;;10.13;2.33;;;23.20;49.30;;;;;;5065868;28;46379;-63
2022/09/14 07:46:04;;;;;;;6.20;2.00;;;23.30;48.90;;;;;;5062199;28;46488;-63
2022/09/14 07:48:38;;;;;;;5.00;2.30;;;23.40;48.60;;;;;;5064866;28;46686;-64
2022/09/14 07:51:06;;;;;;;5.57;2.33;;;23.50;48.00;;;;;;5061964;28;46976;-63
2022/09/14 07:53:37;;;;;;;5.53;2.17;;;23.50;47.70;;;;;;5065507;28;46612;-63
2022/09/14 07:56:04;;;;;;;8.07;2.27;;;23.50;47.40;;;;;;5062953;28;46910;-64
2022/09/14 07:58:30;;;;;;;5.27;2.10;;;23.50;47.30;;;;;;5065471;27;46409;-64
2022/09/14 08:01:18;;;;;;;11.63;2.43;;;23.60;47.20;;;;;;5061278;28;45949;-64
2022/09/14 08:03:45;;;;;;;10.20;1.80;;;23.70;46.60;;;;;;5065238;28;45938;-64
2022/09/14 08:06:14;;;;;;;5.37;1.70;;;23.80;46.50;;;;;;5060227;28;46553;-64
2022/09/14 08:08:43;;;;;;;5.40;2.17;;;23.90;46.00;;;;;;5064133;28;46366;-64
2022/09/14 08:11:11;;;;;;;16.17;2.50;;;23.80;45.70;;;;;;5064073;28;46360;-63
2022/09/14 08:13:39;;;;;;;10.00;2.20;;;24.00;45.20;;;;;;5064532;28;46313;-64
2022/09/14 08:16:05;;;;;;;8.93;2.27;;;24.10;44.60;;;;;;5060364;28;48335;-64
2022/09/14 08:18:32;;;;;;;4.37;2.30;;;24.20;44.00;;;;;;5064422;28;45833;-64
2022/09/14 08:21:04;;;;;;;5.30;2.30;;;24.20;43.60;;;;;;5067301;28;46372;-63
2022/09/14 08:23:29;;;;;;;6.57;2.37;;;24.30;43.40;;;;;;5063764;28;46490;-64
2022/09/14 08:26:00;;;;;;;4.50;2.33;;;24.40;41.30;;;;;;5062106;28;46493;-64
2022/09/14 08:28:25;;;;;;;8.37;2.77;;;24.40;41.90;;;;;;5063455;28;46451;-64
2022/09/14 08:30:51;;;;;;;5.93;2.23;;;24.50;41.20;;;;;;5066117;28;46378;-64
2022/09/14 08:33:17;;;;;;;5.43;2.23;;;24.60;41.10;;;;;;5068583;28;46711;-64
2022/09/14 08:35:43;;;;;;;6.20;2.50;;;24.80;40.40;;;;;;5069486;27;47116;-63
2022/09/14 08:38:09;;;;;;;4.60;1.90;;;24.80;40.60;;;;;;5070962;28;46393;-64
2022/09/14 08:40:43;;;;;;;8.80;2.57;;;25.10;39.00;;;;;;5069178;27;46961;-64
2022/09/14 08:43:12;;;;;;;5.00;2.10;;;25.20;38.70;;;;;;5071824;28;46529;-63
2022/09/14 08:45:40;;;;;;;7.50;2.43;;;25.10;38.70;;;;;;5070645;28;46496;-64
2022/09/14 08:48:22;;;;;;;9.13;2.10;;;25.20;38.80;;;;;;5069341;28;46450;-64
2022/09/14 08:50:52;;;;;;;12.97;3.27;;;25.40;37.90;;;;;;5071210;28;46440;-64
2022/09/14 08:53:21;;;;;;;9.13;2.20;;;25.70;36.90;;;;;;5067535;28;46421;-63
2022/09/14 08:55:47;;;;;;;11.97;2.53;;;25.80;36.50;;;;;;5069339;27;46513;-63
2022/09/14 08:58:27;;;;;;;4.40;1.83;;;25.70;35.80;;;;;;5069901;27;46448;-63
2022/09/14 09:01:16;;;;;;;7.43;2.17;;;25.70;35.90;;;;;;5070250;28;45930;-63
2022/09/14 09:04:04;;;;;;;7.17;2.20;;;25.70;35.50;;;;;;5069817;28;46502;-64
2022/09/14 09:06:38;;;;;;;6.00;2.53;;;25.90;34.80;;;;;;5068618;27;46922;-64
2022/09/14 09:09:03;;;;;;;27.17;3.00;;;25.50;35.00;;;;;;5069937;28;46419;-64
2022/09/14 09:11:43;;;;;;;6.20;2.43;;;25.50;35.10;;;;;;5070681;28;45850;-63
2022/09/14 09:14:24;;;;;;;5.50;2.03;;;25.40;34.90;;;;;;5070221;28;46407;-64
2022/09/14 09:16:54;;;;;;;6.17;2.10;;;25.30;34.70;;;;;;5068354;28;46446;-64
2022/09/14 09:19:29;;;;;;;7.43;2.20;;;25.40;35.10;;;;;;5068831;27;46482;-63
2022/09/14 09:21:55;;;;;;;4.80;2.20;;;25.30;34.90;;;;;;5068366;28;46494;-64
2022/09/14 09:24:32;;;;;;;10.43;2.40;;;25.50;34.10;;;;;;5069463;28;46413;-64
2022/09/14 09:26:59;;;;;;;6.43;2.33;;;25.50;35.00;;;;;;5068833;28;45947;-64
2022/09/14 09:29:28;;;;;;;4.73;2.00;;;25.70;34.80;;;;;;5068370;28;46435;-64
2022/09/14 09:31:57;;;;;;;9.27;2.40;;;26.10;34.10;;;;;;5070030;28;46381;-62
2022/09/14 09:34:35;;;;;;;11.90;2.80;;;26.60;31.90;;;;;;5052274;28;46481;-63
2022/09/14 09:37:01;;;;;;;9.17;2.50;;;26.60;32.40;;;;;;5068951;28;46401;-65
2022/09/14 09:39:30;;;;;;;6.33;2.43;;;26.80;32.20;;;;;;5070486;28;46659;-65
2022/09/14 09:42:11;;;;;;;6.87;2.37;;;26.90;31.50;;;;;;5069880;28;46743;-63
2022/09/14 09:44:56;;;;;;;8.10;2.53;;;26.70;30.60;;;;;;5067381;28;46540;-65
2022/09/14 09:47:41;;;;;;;11.40;2.47;;;26.40;30.50;;;;;;5067178;28;46220;-65
2022/09/14 09:50:14;;;;;;;12.70;2.27;;;26.20;31.10;;;;;;5070357;28;46735;-64
2022/09/14 09:52:56;;;;;;;4.70;1.80;;;26.00;31.30;;;;;;5070268;27;46524;-64
2022/09/14 09:55:35;;;;;;;9.13;2.37;;;26.10;31.30;;;;;;5052858;28;45784;-64
2022/09/14 09:58:21;;;;;;;5.73;1.87;;;26.10;31.20;;;;;;5066522;27;46589;-64
2022/09/14 10:00:59;;;;;;;7.80;2.10;;;26.00;31.50;;;;;;5069853;28;46414;-63
2022/09/14 10:03:35;;;;;;;6.07;2.47;;;25.80;32.10;;;;;;5067723;28;45878;-63
2022/09/14 10:06:08;;;;;;;5.33;2.50;;;25.90;32.10;;;;;;5064721;27;46420;-63
2022/09/14 10:08:44;;;;;;;7.13;2.50;;;26.10;32.20;;;;;;5068492;27;48378;-64
2022/09/14 10:11:31;;;;;;;5.33;2.40;;;26.20;31.80;;;;;;5070015;28;46393;-63
2022/09/14 10:13:57;;;;;;;13.70;2.17;;;26.40;31.10;;;;;;5067108;28;46557;-63
2022/09/14 10:16:28;;;;;;;8.03;2.37;;;25.70;30.30;;;;;;5063695;27;46675;-63
2022/09/14 10:18:54;;;;;;;8.70;2.27;;;25.70;31.50;;;;;;5067879;28;47945;-63
2022/09/14 10:21:26;;;;;;;7.23;2.40;;;25.60;32.20;;;;;;5069409;28;46042;-62
2022/09/14 10:24:31;;;;;;;9.20;2.50;;;25.70;32.60;;;;;;5051993;28;46334;-64
2022/09/14 10:26:57;;;;;;;6.20;2.57;;;25.80;32.00;;;;;;5052529;28;46405;-62
2022/09/14 10:29:23;;;;;;;9.17;2.20;;;25.90;31.80;;;;;;5070248;28;46438;-65
2022/09/14 10:31:50;;;;;;;5.90;2.60;;;25.70;31.90;;;;;;5070509;27;46368;-64
2022/09/14 10:34:19;;;;;;;4.50;2.10;;;25.40;32.20;;;;;;5070306;28;46662;-64
2022/09/14 10:37:03;;;;;;;13.40;2.63;;;25.40;33.30;;;;;;5067733;28;46421;-64
2022/09/14 10:39:44;;;;;;;9.30;2.90;;;25.70;33.40;;;;;;5070246;27;46443;-64
2022/09/14 10:42:39;;;;;;;4.80;2.60;;;25.90;32.80;;;;;;5068121;28;46499;-64
2022/09/14 10:45:15;;;;;;;12.73;2.70;;;26.00;32.60;;;;;;5068322;28;46674;-63
2022/09/14 10:47:47;;;;;;;6.13;2.50;;;26.00;32.40;;;;;;5069170;28;46465;-64
2022/09/14 10:50:32;;;;;;;7.93;1.93;;;25.70;32.40;;;;;;5069074;28;46882;-63
2022/09/14 10:53:00;;;;;;;7.77;2.40;;;25.50;32.70;;;;;;5067608;28;46424;-63
2022/09/14 10:55:59;;;;;;;6.33;2.43;;;25.40;33.50;;;;;;5069029;28;46571;-64
2022/09/14 10:58:38;;;;;;;11.87;2.60;;;25.60;33.30;;;;;;5076164;28;46306;-64
2022/09/14 11:01:04;;;;;;;5.80;2.10;;;25.50;33.10;;;;;;5068996;27;46600;-64
2022/09/14 11:04:01;;;;;;;9.63;2.63;;;25.40;33.00;;;;;;5069928;27;46409;-64
2022/09/14 11:06:37;;;;;;;8.93;2.57;;;25.30;32.10;;;;;;5066594;28;46575;-64
2022/09/14 11:09:27;;;;;;;10.23;1.90;;;25.50;33.70;;;;;;5070811;28;46534;-64
2022/09/14 11:12:11;;;;;;;6.43;2.10;;;25.80;32.80;;;;;;5078121;27;47097;-64
2022/09/14 11:15:00;;;;;;;10.37;2.90;;;25.80;31.40;;;;;;5062899;28;46421;-63
2022/09/14 11:17:50;;;;;;;7.67;2.37;;;25.70;31.80;;;;;;5067555;28;46909;-64
2022/09/14 11:20:37;;;;;;;6.30;2.00;;;25.80;32.10;;;;;;5067367;28;46457;-64
2022/09/14 11:23:18;;;;;;;8.60;2.97;;;25.90;31.20;;;;;;5066767;28;47169;-63
2022/09/14 11:26:07;;;;;;;14.23;2.93;;;26.00;31.40;;;;;;5068740;27;46536;-63
2022/09/14 11:28:40;;;;;;;10.00;2.50;;;26.10;30.60;;;;;;5066666;27;46304;-63
2022/09/14 11:31:19;;;;;;;5.47;2.50;;;26.20;31.40;;;;;;5068781;28;45841;-63
2022/09/14 11:34:18;;;;;;;9.03;2.40;;;26.50;29.90;;;;;;5067675;28;47616;-64
2022/09/14 11:36:51;;;;;;;11.50;3.20;;;26.90;29.00;;;;;;5068284;28;46476;-62
2022/09/14 11:39:28;;;;;;;20.47;2.83;;;27.20;28.50;;;;;;5068583;28;45848;-63
2022/09/14 11:42:08;;;;;;;8.43;2.40;;;27.40;28.30;;;;;;5068176;28;46629;-62
2022/09/14 11:44:37;;;;;;;11.70;2.47;;;27.50;26.50;;;;;;5067501;28;47111;-62
2022/09/14 11:47:06;;;;;;;6.47;2.67;;;27.50;27.30;;;;;;5066866;28;46420;-62
2022/09/14 11:50:14;;;;;;;6.63;2.03;;;27.30;27.20;;;;;;5067217;28;46440;-62
2022/09/14 11:52:39;;;;;;;7.40;2.30;;;27.20;27.10;;;;;;5066484;28;46325;-63
2022/09/14 11:55:14;;;;;;;22.27;2.80;;;27.10;28.10;;;;;;5065459;27;47300;-62
2022/09/14 11:57:45;;;;;;;12.40;2.13;;;27.00;27.70;;;;;;5064225;28;46646;-63
2022/09/14 12:00:23;;;;;;;7.40;2.30;;;27.20;28.00;;;;;;5067555;28;46550;-63
2022/09/14 12:03:13;;;;;;;9.40;2.00;;;27.20;27.40;;;;;;5066477;27;46394;-62
2022/09/14 12:05:39;;;;;;;16.03;3.00;;;27.30;26.30;;;;;;5067067;28;48083;-62
2022/09/14 12:08:26;;;;;;;8.40;2.27;;;27.20;26.40;;;;;;5068603;28;46968;-62
2022/09/14 12:11:07;;;;;;;9.90;2.73;;;27.10;27.60;;;;;;5070089;27;45841;-64
2022/09/14 12:13:33;;;;;;;8.50;2.73;;;27.30;27.90;;;;;;5070168;27;46378;-63
2022/09/14 12:16:07;;;;;;;7.13;2.33;;;27.20;27.40;;;;;;5070181;28;46507;-64
2022/09/14 12:18:38;;;;;;;9.67;2.13;;;27.20;27.10;;;;;;5069893;28;46394;-64
2022/09/14 12:21:07;;;;;;;6.13;2.17;;;27.00;27.00;;;;;;5069809;27;46417;-65
2022/09/14 12:23:40;;;;;;;7.63;2.40;;;26.60;26.80;;;;;;5069433;28;46607;-64
2022/09/14 12:26:09;;;;;;;5.90;2.43;;;26.30;27.40;;;;;;5070713;28;47281;-64
2022/09/14 12:28:34;;;;;;;22.23;3.50;;;26.00;28.10;;;;;;5065121;28;46600;-64
2022/09/14 12:31:03;;;;;;;10.60;2.33;;;25.80;28.70;;;;;;5070391;28;46448;-64
2022/09/14 12:33:31;;;;;;;10.73;2.47;;;25.70;29.30;;;;;;5070725;28;46399;-63
2022/09/14 12:36:03;;;;;;;5.83;2.40;;;25.80;29.40;;;;;;5069285;28;46928;-62
2022/09/14 12:38:29;;;;;;;10.13;2.30;;;25.80;29.50;;;;;;5067568;28;46606;-62
2022/09/14 12:41:30;;;;;;;10.67;2.73;;;25.60;29.80;;;;;;5068391;28;45876;-63
2022/09/14 12:43:56;;;;;;;8.07;2.17;;;25.50;29.80;;;;;;5068048;28;46722;-62
2022/09/14 12:46:22;;;;;;;6.70;2.13;;;25.40;30.00;;;;;;5067735;28;47304;-66
2022/09/14 12:48:48;;;;;;;13.07;2.90;;;25.50;30.00;;;;;;5070149;27;46625;-64
2022/09/14 12:51:32;;;;;;;4.77;2.30;;;25.50;30.00;;;;;;5069540;28;45860;-62
2022/09/14 12:54:07;;;;;;;9.23;2.20;;;25.60;30.10;;;;;;5070351;28;45829;-62
2022/09/14 12:56:37;;;;;;;9.83;2.50;;;25.70;30.40;;;;;;5070797;27;46519;-62
2022/09/14 12:59:40;;;;;;;5.27;2.53;;;25.90;30.00;;;;;;5067014;27;46726;-63
2022/09/14 13:02:37;;;;;;;7.20;2.70;;;25.80;29.90;;;;;;5072439;28;46633;-62
2022/09/14 13:05:06;;;;;;;7.33;2.40;;;26.00;29.80;;;;;;5070719;28;46736;-63
2022/09/14 13:07:37;;;;;;;12.40;2.50;;;26.20;29.50;;;;;;5068625;27;47264;-64
2022/09/14 13:10:05;;;;;;;13.40;2.80;;;26.30;29.30;;;;;;5069463;28;46554;-63
2022/09/14 13:12:37;;;;;;;12.13;2.93;;;26.30;29.30;;;;;;5068122;28;46564;-63
2022/09/14 13:15:12;;;;;;;11.03;2.40;;;26.40;29.20;;;;;;5069359;28;46446;-62